sensor_id;sensor_type;location;lat;lon;timestamp;P1;durP1;ratioP1;P2;durP2;ratioP2
36189;SDS011;22232;50.914;13.858;2023-03-03T00:01:09;55.53;;;22.88;;
36189;SDS011;22232;50.914;13.858;2023-03-03T00:03:37;59.28;;;24.27;;
36189;SDS011;22232;50.914;13.858;2023-03-03T00:06:05;56.72;;;24.65;;
36189;SDS011;22232;50.914;13.858;2023-03-03T00:08:36;50.95;;;23.77;;
36189;SDS011;22232;50.914;13.858;2023-03-03T00:11:05;50.67;;;22.67;;
36189;SDS011;22232;50.914;13.858;2023-03-03T00:13:43;56.60;;;22.98;;
36189;SDS011;22232;50.914;13.858;2023-03-03T00:18:49;68.20;;;28.95;;
36189;SDS011;22232;50.914;13.858;2023-03-03T00:21:21;72.20;;;30.50;;
36189;SDS011;22232;50.914;13.858;2023-03-03T00:26:59;70.47;;;31.15;;
36189;SDS011;22232;50.914;13.858;2023-03-03T00:29:35;81.05;;;32.20;;
36189;SDS011;22232;50.914;13.858;2023-03-03T00:34:59;74.97;;;30.80;;
36189;SDS011;22232;50.914;13.858;2023-03-03T00:37:44;82.68;;;33.13;;
36189;SDS011;22232;50.914;13.858;2023-03-03T00:40:20;99.82;;;35.72;;
36189;SDS011;22232;50.914;13.858;2023-03-03T00:42:49;88.88;;;36.50;;
36189;SDS011;22232;50.914;13.858;2023-03-03T00:45:27;91.38;;;34.60;;
36189;SDS011;22232;50.914;13.858;2023-03-03T00:48:15;93.55;;;34.15;;
36189;SDS011;22232;50.914;13.858;2023-03-03T00:50:47;95.78;;;38.50;;
36189;SDS011;22232;50.914;13.858;2023-03-03T00:53:16;90.50;;;37.17;;
36189;SDS011;22232;50.914;13.858;2023-03-03T00:55:46;111.25;;;40.75;;
36189;SDS011;22232;50.914;13.858;2023-03-03T00:58:16;96.18;;;38.45;;
36189;SDS011;22232;50.914;13.858;2023-03-03T01:00:47;115.13;;;41.90;;
36189;SDS011;22232;50.914;13.858;2023-03-03T01:03:20;111.57;;;44.22;;
36189;SDS011;22232;50.914;13.858;2023-03-03T01:05:51;114.70;;;41.45;;
36189;SDS011;22232;50.914;13.858;2023-03-03T01:08:19;126.28;;;43.15;;
36189;SDS011;22232;50.914;13.858;2023-03-03T01:10:49;109.72;;;42.40;;
36189;SDS011;22232;50.914;13.858;2023-03-03T01:13:30;123.53;;;42.50;;
36189;SDS011;22232;50.914;13.858;2023-03-03T01:16:03;117.18;;;41.85;;
36189;SDS011;22232;50.914;13.858;2023-03-03T01:18:31;121.45;;;43.38;;
36189;SDS011;22232;50.914;13.858;2023-03-03T01:21:00;110.00;;;40.40;;
36189;SDS011;22232;50.914;13.858;2023-03-03T01:23:28;104.40;;;37.00;;
36189;SDS011;22232;50.914;13.858;2023-03-03T01:25:55;102.00;;;38.83;;
36189;SDS011;22232;50.914;13.858;2023-03-03T01:28:23;141.48;;;42.42;;
36189;SDS011;22232;50.914;13.858;2023-03-03T01:30:51;103.38;;;38.17;;
36189;SDS011;22232;50.914;13.858;2023-03-03T01:33:18;140.23;;;43.38;;
36189;SDS011;22232;50.914;13.858;2023-03-03T01:35:46;108.13;;;39.42;;
36189;SDS011;22232;50.914;13.858;2023-03-03T01:38:15;112.00;;;42.15;;
36189;SDS011;22232;50.914;13.858;2023-03-03T01:40:48;117.78;;;43.10;;
36189;SDS011;22232;50.914;13.858;2023-03-03T01:43:18;189.55;;;45.30;;
36189;SDS011;22232;50.914;13.858;2023-03-03T01:48:17;114.63;;;42.80;;
36189;SDS011;22232;50.914;13.858;2023-03-03T01:51:00;124.20;;;42.40;;
36189;SDS011;22232;50.914;13.858;2023-03-03T01:53:38;151.63;;;44.42;;
36189;SDS011;22232;50.914;13.858;2023-03-03T01:56:10;129.10;;;43.88;;
36189;SDS011;22232;50.914;13.858;2023-03-03T01:58:41;144.48;;;45.30;;
36189;SDS011;22232;50.914;13.858;2023-03-03T02:01:13;131.60;;;43.60;;
36189;SDS011;22232;50.914;13.858;2023-03-03T02:03:43;136.00;;;46.28;;
36189;SDS011;22232;50.914;13.858;2023-03-03T02:06:15;190.20;;;46.33;;
36189;SDS011;22232;50.914;13.858;2023-03-03T02:11:29;117.95;;;43.75;;
36189;SDS011;22232;50.914;13.858;2023-03-03T02:13:58;193.73;;;48.67;;
36189;SDS011;22232;50.914;13.858;2023-03-03T02:16:26;138.07;;;45.03;;
36189;SDS011;22232;50.914;13.858;2023-03-03T02:18:54;154.93;;;48.35;;
36189;SDS011;22232;50.914;13.858;2023-03-03T02:21:22;161.23;;;46.78;;
36189;SDS011;22232;50.914;13.858;2023-03-03T02:26:40;102.53;;;40.03;;
36189;SDS011;22232;50.914;13.858;2023-03-03T02:29:09;164.65;;;46.60;;
36189;SDS011;22232;50.914;13.858;2023-03-03T02:31:39;130.52;;;46.88;;
36189;SDS011;22232;50.914;13.858;2023-03-03T02:34:08;137.52;;;43.10;;
36189;SDS011;22232;50.914;13.858;2023-03-03T02:36:36;110.35;;;41.75;;
36189;SDS011;22232;50.914;13.858;2023-03-03T02:44:40;107.15;;;38.67;;
36189;SDS011;22232;50.914;13.858;2023-03-03T02:47:07;104.20;;;38.78;;
36189;SDS011;22232;50.914;13.858;2023-03-03T02:49:36;114.05;;;40.25;;
36189;SDS011;22232;50.914;13.858;2023-03-03T02:52:05;107.38;;;40.72;;
36189;SDS011;22232;50.914;13.858;2023-03-03T02:54:38;116.45;;;41.40;;
36189;SDS011;22232;50.914;13.858;2023-03-03T02:57:06;109.57;;;40.00;;
36189;SDS011;22232;50.914;13.858;2023-03-03T02:59:35;109.00;;;40.63;;
36189;SDS011;22232;50.914;13.858;2023-03-03T03:02:12;120.47;;;41.75;;
36189;SDS011;22232;50.914;13.858;2023-03-03T03:04:41;105.50;;;37.72;;
36189;SDS011;22232;50.914;13.858;2023-03-03T03:07:14;101.25;;;40.33;;
36189;SDS011;22232;50.914;13.858;2023-03-03T03:09:41;109.53;;;39.33;;
36189;SDS011;22232;50.914;13.858;2023-03-03T03:12:09;127.95;;;39.63;;
36189;SDS011;22232;50.914;13.858;2023-03-03T03:14:37;98.47;;;37.78;;
36189;SDS011;22232;50.914;13.858;2023-03-03T03:17:05;111.78;;;39.10;;
36189;SDS011;22232;50.914;13.858;2023-03-03T03:19:33;96.50;;;37.47;;
36189;SDS011;22232;50.914;13.858;2023-03-03T03:22:01;105.18;;;37.53;;
36189;SDS011;22232;50.914;13.858;2023-03-03T03:24:32;96.35;;;36.25;;
36189;SDS011;22232;50.914;13.858;2023-03-03T03:27:03;109.05;;;38.97;;
36189;SDS011;22232;50.914;13.858;2023-03-03T03:29:31;93.78;;;35.78;;
36189;SDS011;22232;50.914;13.858;2023-03-03T03:31:59;94.22;;;35.63;;
36189;SDS011;22232;50.914;13.858;2023-03-03T03:34:27;96.95;;;37.15;;
36189;SDS011;22232;50.914;13.858;2023-03-03T03:36:56;98.47;;;37.20;;
36189;SDS011;22232;50.914;13.858;2023-03-03T03:39:25;108.85;;;38.75;;
36189;SDS011;22232;50.914;13.858;2023-03-03T03:41:53;101.57;;;36.10;;
36189;SDS011;22232;50.914;13.858;2023-03-03T03:44:21;102.63;;;37.50;;
36189;SDS011;22232;50.914;13.858;2023-03-03T03:46:50;101.05;;;38.10;;
36189;SDS011;22232;50.914;13.858;2023-03-03T03:49:19;95.80;;;35.75;;
36189;SDS011;22232;50.914;13.858;2023-03-03T03:51:48;98.72;;;36.55;;
36189;SDS011;22232;50.914;13.858;2023-03-03T03:54:19;102.35;;;37.83;;
36189;SDS011;22232;50.914;13.858;2023-03-03T03:56:48;106.00;;;38.47;;
36189;SDS011;22232;50.914;13.858;2023-03-03T03:59:15;101.85;;;39.05;;
36189;SDS011;22232;50.914;13.858;2023-03-03T04:01:43;104.72;;;39.33;;
36189;SDS011;22232;50.914;13.858;2023-03-03T04:04:11;100.63;;;36.55;;
36189;SDS011;22232;50.914;13.858;2023-03-03T04:06:39;102.35;;;37.80;;
36189;SDS011;22232;50.914;13.858;2023-03-03T04:09:07;111.40;;;39.95;;
36189;SDS011;22232;50.914;13.858;2023-03-03T04:11:34;101.22;;;38.40;;
36189;SDS011;22232;50.914;13.858;2023-03-03T04:14:04;98.63;;;36.63;;
36189;SDS011;22232;50.914;13.858;2023-03-03T04:16:33;112.95;;;39.15;;
36189;SDS011;22232;50.914;13.858;2023-03-03T04:19:02;112.63;;;38.92;;
36189;SDS011;22232;50.914;13.858;2023-03-03T04:21:31;95.95;;;37.50;;
36189;SDS011;22232;50.914;13.858;2023-03-03T04:24:02;105.75;;;37.42;;
36189;SDS011;22232;50.914;13.858;2023-03-03T04:26:29;116.80;;;36.00;;
36189;SDS011;22232;50.914;13.858;2023-03-03T04:28:59;143.27;;;39.38;;
36189;SDS011;22232;50.914;13.858;2023-03-03T04:31:28;115.65;;;36.17;;
36189;SDS011;22232;50.914;13.858;2023-03-03T04:33:56;218.73;;;40.83;;
36189;SDS011;22232;50.914;13.858;2023-03-03T04:36:25;167.25;;;41.15;;
36189;SDS011;22232;50.914;13.858;2023-03-03T04:38:52;109.75;;;36.50;;
36189;SDS011;22232;50.914;13.858;2023-03-03T04:41:21;167.10;;;40.20;;
36189;SDS011;22232;50.914;13.858;2023-03-03T04:43:48;236.98;;;45.63;;
36189;SDS011;22232;50.914;13.858;2023-03-03T04:46:16;246.73;;;44.45;;
36189;SDS011;22232;50.914;13.858;2023-03-03T04:48:44;131.60;;;40.08;;
36189;SDS011;22232;50.914;13.858;2023-03-03T04:51:12;113.38;;;38.10;;
36189;SDS011;22232;50.914;13.858;2023-03-03T04:53:43;237.07;;;44.40;;
36189;SDS011;22232;50.914;13.858;2023-03-03T04:56:11;199.85;;;41.20;;
36189;SDS011;22232;50.914;13.858;2023-03-03T04:58:39;115.22;;;39.45;;
36189;SDS011;22232;50.914;13.858;2023-03-03T05:01:06;113.97;;;37.92;;
36189;SDS011;22232;50.914;13.858;2023-03-03T05:03:34;115.88;;;39.70;;
36189;SDS011;22232;50.914;13.858;2023-03-03T05:06:02;121.57;;;39.15;;
36189;SDS011;22232;50.914;13.858;2023-03-03T05:08:29;112.70;;;38.42;;
36189;SDS011;22232;50.914;13.858;2023-03-03T05:10:57;111.32;;;37.10;;
36189;SDS011;22232;50.914;13.858;2023-03-03T05:13:26;112.40;;;36.90;;
36189;SDS011;22232;50.914;13.858;2023-03-03T05:15:53;99.30;;;35.38;;
36189;SDS011;22232;50.914;13.858;2023-03-03T05:18:23;109.70;;;38.03;;
36189;SDS011;22232;50.914;13.858;2023-03-03T05:20:51;111.00;;;35.10;;
36189;SDS011;22232;50.914;13.858;2023-03-03T05:23:19;100.15;;;33.95;;
36189;SDS011;22232;50.914;13.858;2023-03-03T05:25:47;109.05;;;35.53;;
36189;SDS011;22232;50.914;13.858;2023-03-03T05:28:15;103.63;;;35.40;;
36189;SDS011;22232;50.914;13.858;2023-03-03T05:30:43;117.03;;;36.15;;
36189;SDS011;22232;50.914;13.858;2023-03-03T05:33:12;98.45;;;34.92;;
36189;SDS011;22232;50.914;13.858;2023-03-03T05:35:41;91.38;;;33.58;;
36189;SDS011;22232;50.914;13.858;2023-03-03T05:40:55;97.70;;;34.20;;
36189;SDS011;22232;50.914;13.858;2023-03-03T05:43:22;94.45;;;33.35;;
36189;SDS011;22232;50.914;13.858;2023-03-03T05:45:53;102.90;;;35.95;;
36189;SDS011;22232;50.914;13.858;2023-03-03T05:48:22;93.47;;;35.28;;
36189;SDS011;22232;50.914;13.858;2023-03-03T05:50:50;109.63;;;36.10;;
36189;SDS011;22232;50.914;13.858;2023-03-03T05:53:17;102.35;;;36.38;;
36189;SDS011;22232;50.914;13.858;2023-03-03T05:55:45;101.57;;;35.92;;
36189;SDS011;22232;50.914;13.858;2023-03-03T05:58:12;130.40;;;38.70;;
36189;SDS011;22232;50.914;13.858;2023-03-03T06:00:40;109.35;;;37.30;;
36189;SDS011;22232;50.914;13.858;2023-03-03T06:03:07;119.30;;;37.58;;
36189;SDS011;22232;50.914;13.858;2023-03-03T06:05:35;120.55;;;37.70;;
36189;SDS011;22232;50.914;13.858;2023-03-03T06:08:02;101.20;;;35.42;;
36189;SDS011;22232;50.914;13.858;2023-03-03T06:10:30;103.88;;;35.78;;
36189;SDS011;22232;50.914;13.858;2023-03-03T06:13:02;96.20;;;34.13;;
36189;SDS011;22232;50.914;13.858;2023-03-03T06:15:29;114.57;;;36.50;;
36189;SDS011;22232;50.914;13.858;2023-03-03T06:17:57;108.25;;;35.45;;
36189;SDS011;22232;50.914;13.858;2023-03-03T06:20:25;110.50;;;38.15;;
36189;SDS011;22232;50.914;13.858;2023-03-03T06:22:59;111.53;;;38.13;;
36189;SDS011;22232;50.914;13.858;2023-03-03T06:25:27;103.45;;;34.83;;
36189;SDS011;22232;50.914;13.858;2023-03-03T06:27:55;105.43;;;38.13;;
36189;SDS011;22232;50.914;13.858;2023-03-03T06:30:23;110.82;;;37.33;;
36189;SDS011;22232;50.914;13.858;2023-03-03T06:32:53;107.65;;;35.83;;
36189;SDS011;22232;50.914;13.858;2023-03-03T06:35:20;97.10;;;35.78;;
36189;SDS011;22232;50.914;13.858;2023-03-03T06:37:48;96.10;;;35.72;;
36189;SDS011;22232;50.914;13.858;2023-03-03T06:40:16;96.30;;;35.67;;
36189;SDS011;22232;50.914;13.858;2023-03-03T06:42:44;98.90;;;36.42;;
36189;SDS011;22232;50.914;13.858;2023-03-03T06:45:12;97.65;;;36.75;;
36189;SDS011;22232;50.914;13.858;2023-03-03T06:47:40;93.07;;;33.35;;
36189;SDS011;22232;50.914;13.858;2023-03-03T06:50:09;89.53;;;34.63;;
36189;SDS011;22232;50.914;13.858;2023-03-03T06:52:38;93.43;;;33.97;;
36189;SDS011;22232;50.914;13.858;2023-03-03T06:55:12;88.45;;;34.20;;
36189;SDS011;22232;50.914;13.858;2023-03-03T06:57:48;119.65;;;36.78;;
36189;SDS011;22232;50.914;13.858;2023-03-03T07:00:23;91.75;;;33.97;;
36189;SDS011;22232;50.914;13.858;2023-03-03T07:03:14;94.57;;;34.65;;
36189;SDS011;22232;50.914;13.858;2023-03-03T07:05:39;104.35;;;33.78;;
36189;SDS011;22232;50.914;13.858;2023-03-03T07:08:17;104.97;;;34.95;;
36189;SDS011;22232;50.914;13.858;2023-03-03T07:10:47;94.78;;;34.15;;
36189;SDS011;22232;50.914;13.858;2023-03-03T07:15:44;113.13;;;35.80;;
36189;SDS011;22232;50.914;13.858;2023-03-03T07:18:32;137.43;;;38.80;;
36189;SDS011;22232;50.914;13.858;2023-03-03T07:21:07;106.15;;;36.13;;
36189;SDS011;22232;50.914;13.858;2023-03-03T07:23:42;141.98;;;40.60;;
36189;SDS011;22232;50.914;13.858;2023-03-03T07:26:12;109.45;;;37.22;;
36189;SDS011;22232;50.914;13.858;2023-03-03T07:28:42;129.05;;;40.22;;
36189;SDS011;22232;50.914;13.858;2023-03-03T07:31:19;114.13;;;38.95;;
36189;SDS011;22232;50.914;13.858;2023-03-03T07:33:54;117.00;;;39.13;;
36189;SDS011;22232;50.914;13.858;2023-03-03T07:38:56;113.57;;;39.00;;
36189;SDS011;22232;50.914;13.858;2023-03-03T07:41:27;110.53;;;39.45;;
36189;SDS011;22232;50.914;13.858;2023-03-03T07:44:11;119.50;;;39.65;;
36189;SDS011;22232;50.914;13.858;2023-03-03T07:47:22;100.15;;;35.70;;
36189;SDS011;22232;50.914;13.858;2023-03-03T07:49:55;107.47;;;37.33;;
36189;SDS011;22232;50.914;13.858;2023-03-03T07:57:45;114.25;;;37.88;;
36189;SDS011;22232;50.914;13.858;2023-03-03T08:02:44;106.15;;;38.78;;
36189;SDS011;22232;50.914;13.858;2023-03-03T08:07:49;105.35;;;36.08;;
36189;SDS011;22232;50.914;13.858;2023-03-03T08:13:20;99.90;;;36.92;;
36189;SDS011;22232;50.914;13.858;2023-03-03T08:15:51;102.97;;;36.92;;
36189;SDS011;22232;50.914;13.858;2023-03-03T08:18:38;102.07;;;36.55;;
36189;SDS011;22232;50.914;13.858;2023-03-03T08:21:22;97.38;;;35.47;;
36189;SDS011;22232;50.914;13.858;2023-03-03T08:23:50;91.72;;;35.58;;
36189;SDS011;22232;50.914;13.858;2023-03-03T08:26:20;88.53;;;34.08;;
36189;SDS011;22232;50.914;13.858;2023-03-03T08:28:49;95.40;;;34.03;;
36189;SDS011;22232;50.914;13.858;2023-03-03T08:31:17;92.03;;;34.45;;
36189;SDS011;22232;50.914;13.858;2023-03-03T08:34:05;95.57;;;35.53;;
36189;SDS011;22232;50.914;13.858;2023-03-03T08:36:32;101.13;;;35.10;;
36189;SDS011;22232;50.914;13.858;2023-03-03T08:39:01;99.50;;;36.72;;
36189;SDS011;22232;50.914;13.858;2023-03-03T08:41:30;95.53;;;35.60;;
36189;SDS011;22232;50.914;13.858;2023-03-03T08:43:58;92.80;;;35.13;;
36189;SDS011;22232;50.914;13.858;2023-03-03T08:46:25;98.13;;;35.75;;
36189;SDS011;22232;50.914;13.858;2023-03-03T08:48:53;100.30;;;37.15;;
36189;SDS011;22232;50.914;13.858;2023-03-03T08:51:20;105.75;;;37.55;;
36189;SDS011;22232;50.914;13.858;2023-03-03T08:53:48;98.78;;;36.63;;
36189;SDS011;22232;50.914;13.858;2023-03-03T08:56:15;104.30;;;37.38;;
36189;SDS011;22232;50.914;13.858;2023-03-03T08:58:43;111.45;;;37.20;;
36189;SDS011;22232;50.914;13.858;2023-03-03T09:01:29;107.88;;;37.78;;
36189;SDS011;22232;50.914;13.858;2023-03-03T09:03:58;103.50;;;35.75;;
36189;SDS011;22232;50.914;13.858;2023-03-03T09:06:25;116.55;;;39.15;;
36189;SDS011;22232;50.914;13.858;2023-03-03T09:08:53;96.75;;;35.60;;
36189;SDS011;22232;50.914;13.858;2023-03-03T09:11:23;98.53;;;36.28;;
36189;SDS011;22232;50.914;13.858;2023-03-03T09:14:12;89.22;;;33.47;;
36189;SDS011;22232;50.914;13.858;2023-03-03T09:16:44;99.20;;;35.05;;
36189;SDS011;22232;50.914;13.858;2023-03-03T09:19:18;99.65;;;34.80;;
36189;SDS011;22232;50.914;13.858;2023-03-03T09:21:49;111.97;;;37.65;;
36189;SDS011;22232;50.914;13.858;2023-03-03T09:24:23;97.68;;;34.35;;
36189;SDS011;22232;50.914;13.858;2023-03-03T09:26:55;98.97;;;37.03;;
36189;SDS011;22232;50.914;13.858;2023-03-03T09:29:30;95.07;;;33.80;;
36189;SDS011;22232;50.914;13.858;2023-03-03T09:34:56;86.47;;;31.48;;
36189;SDS011;22232;50.914;13.858;2023-03-03T09:40:27;83.63;;;29.50;;
36189;SDS011;22232;50.914;13.858;2023-03-03T09:48:47;58.25;;;21.90;;
36189;SDS011;22232;50.914;13.858;2023-03-03T09:57:24;65.10;;;24.23;;
36189;SDS011;22232;50.914;13.858;2023-03-03T10:05:13;338.02;;;40.72;;
36189;SDS011;22232;50.914;13.858;2023-03-03T10:07:48;165.82;;;29.35;;
36189;SDS011;22232;50.914;13.858;2023-03-03T10:11:03;147.32;;;30.67;;
36189;SDS011;22232;50.914;13.858;2023-03-03T10:13:48;81.32;;;27.67;;
36189;SDS011;22232;50.914;13.858;2023-03-03T10:19:02;62.90;;;21.88;;
36189;SDS011;22232;50.914;13.858;2023-03-03T10:24:43;72.80;;;21.73;;
36189;SDS011;22232;50.914;13.858;2023-03-03T10:27:33;51.45;;;19.55;;
36189;SDS011;22232;50.914;13.858;2023-03-03T10:33:25;103.10;;;22.38;;
36189;SDS011;22232;50.914;13.858;2023-03-03T10:36:02;48.17;;;19.15;;
36189;SDS011;22232;50.914;13.858;2023-03-03T10:41:38;79.28;;;21.67;;
36189;SDS011;22232;50.914;13.858;2023-03-03T10:44:41;52.65;;;18.75;;
36189;SDS011;22232;50.914;13.858;2023-03-03T10:50:30;40.42;;;16.73;;
36189;SDS011;22232;50.914;13.858;2023-03-03T11:04:09;41.97;;;16.95;;
36189;SDS011;22232;50.914;13.858;2023-03-03T11:14:56;43.47;;;17.27;;
36189;SDS011;22232;50.914;13.858;2023-03-03T11:20:38;42.58;;;17.48;;
36189;SDS011;22232;50.914;13.858;2023-03-03T11:23:50;43.42;;;17.52;;
36189;SDS011;22232;50.914;13.858;2023-03-03T11:31:52;31.05;;;14.75;;
36189;SDS011;22232;50.914;13.858;2023-03-03T11:39:55;32.97;;;15.75;;
36189;SDS011;22232;50.914;13.858;2023-03-03T11:45:28;38.53;;;15.63;;
36189;SDS011;22232;50.914;13.858;2023-03-03T11:48:48;36.90;;;15.88;;
36189;SDS011;22232;50.914;13.858;2023-03-03T11:51:10;37.53;;;15.50;;
36189;SDS011;22232;50.914;13.858;2023-03-03T12:04:30;33.60;;;14.38;;
36189;SDS011;22232;50.914;13.858;2023-03-03T12:12:44;37.40;;;14.93;;
36189;SDS011;22232;50.914;13.858;2023-03-03T12:26:36;28.23;;;12.68;;
36189;SDS011;22232;50.914;13.858;2023-03-03T12:28:57;26.92;;;12.48;;
36189;SDS011;22232;50.914;13.858;2023-03-03T12:36:56;28.73;;;12.63;;
36189;SDS011;22232;50.914;13.858;2023-03-03T12:45:06;26.52;;;11.35;;
36189;SDS011;22232;50.914;13.858;2023-03-03T12:47:59;22.92;;;11.68;;
36189;SDS011;22232;50.914;13.858;2023-03-03T12:50:35;23.23;;;11.02;;
36189;SDS011;22232;50.914;13.858;2023-03-03T12:56:28;24.50;;;11.23;;
36189;SDS011;22232;50.914;13.858;2023-03-03T12:59:04;26.45;;;11.48;;
36189;SDS011;22232;50.914;13.858;2023-03-03T13:01:58;26.55;;;11.40;;
36189;SDS011;22232;50.914;13.858;2023-03-03T13:13:52;26.67;;;12.13;;
36189;SDS011;22232;50.914;13.858;2023-03-03T13:16:23;27.52;;;12.75;;
36189;SDS011;22232;50.914;13.858;2023-03-03T13:19:11;25.92;;;12.23;;
36189;SDS011;22232;50.914;13.858;2023-03-03T13:21:49;21.80;;;10.73;;
36189;SDS011;22232;50.914;13.858;2023-03-03T13:24:23;19.70;;;9.32;;
36189;SDS011;22232;50.914;13.858;2023-03-03T13:32:18;21.25;;;9.85;;
36189;SDS011;22232;50.914;13.858;2023-03-03T13:37:29;23.05;;;10.82;;
36189;SDS011;22232;50.914;13.858;2023-03-03T13:40:04;23.85;;;11.45;;
36189;SDS011;22232;50.914;13.858;2023-03-03T13:45:17;23.13;;;10.27;;
36189;SDS011;22232;50.914;13.858;2023-03-03T13:47:54;17.30;;;8.63;;
36189;SDS011;22232;50.914;13.858;2023-03-03T13:50:32;20.42;;;9.05;;
36189;SDS011;22232;50.914;13.858;2023-03-03T13:53:20;20.85;;;8.40;;
36189;SDS011;22232;50.914;13.858;2023-03-03T13:56:00;14.15;;;7.43;;
36189;SDS011;22232;50.914;13.858;2023-03-03T14:04:31;18.52;;;8.50;;
36189;SDS011;22232;50.914;13.858;2023-03-03T14:07:30;17.08;;;8.45;;
36189;SDS011;22232;50.914;13.858;2023-03-03T14:10:08;16.17;;;7.60;;
36189;SDS011;22232;50.914;13.858;2023-03-03T14:15:23;17.02;;;7.13;;
36189;SDS011;22232;50.914;13.858;2023-03-03T14:18:06;14.38;;;7.13;;
36189;SDS011;22232;50.914;13.858;2023-03-03T14:21:13;17.42;;;6.43;;
36189;SDS011;22232;50.914;13.858;2023-03-03T14:32:18;13.70;;;6.75;;
36189;SDS011;22232;50.914;13.858;2023-03-03T14:34:57;12.02;;;6.47;;
36189;SDS011;22232;50.914;13.858;2023-03-03T14:37:29;13.00;;;6.35;;
36189;SDS011;22232;50.914;13.858;2023-03-03T14:47:56;14.30;;;6.88;;
36189;SDS011;22232;50.914;13.858;2023-03-03T14:53:14;18.17;;;7.68;;
36189;SDS011;22232;50.914;13.858;2023-03-03T14:55:46;18.15;;;8.80;;
36189;SDS011;22232;50.914;13.858;2023-03-03T14:58:23;15.27;;;7.55;;
36189;SDS011;22232;50.914;13.858;2023-03-03T15:01:08;13.18;;;7.07;;
36189;SDS011;22232;50.914;13.858;2023-03-03T15:03:48;14.82;;;7.40;;
36189;SDS011;22232;50.914;13.858;2023-03-03T15:12:21;15.23;;;6.80;;
36189;SDS011;22232;50.914;13.858;2023-03-03T15:15:04;18.80;;;8.25;;
36189;SDS011;22232;50.914;13.858;2023-03-03T15:17:38;18.67;;;7.72;;
36189;SDS011;22232;50.914;13.858;2023-03-03T15:20:29;14.77;;;7.22;;
36189;SDS011;22232;50.914;13.858;2023-03-03T15:28:28;18.83;;;8.23;;
36189;SDS011;22232;50.914;13.858;2023-03-03T15:31:08;20.05;;;8.38;;
36189;SDS011;22232;50.914;13.858;2023-03-03T15:33:45;19.60;;;7.93;;
36189;SDS011;22232;50.914;13.858;2023-03-03T15:36:27;20.80;;;8.10;;
36189;SDS011;22232;50.914;13.858;2023-03-03T15:41:44;21.98;;;8.00;;
36189;SDS011;22232;50.914;13.858;2023-03-03T15:49:57;21.00;;;7.68;;
36189;SDS011;22232;50.914;13.858;2023-03-03T15:52:55;21.08;;;8.13;;
36189;SDS011;22232;50.914;13.858;2023-03-03T15:55:51;19.55;;;8.45;;
36189;SDS011;22232;50.914;13.858;2023-03-03T16:04:00;22.10;;;7.97;;
36189;SDS011;22232;50.914;13.858;2023-03-03T16:23:15;20.85;;;9.10;;
36189;SDS011;22232;50.914;13.858;2023-03-03T16:28:38;22.60;;;8.23;;
36189;SDS011;22232;50.914;13.858;2023-03-03T16:31:36;20.42;;;8.05;;
36189;SDS011;22232;50.914;13.858;2023-03-03T16:39:52;23.50;;;9.18;;
36189;SDS011;22232;50.914;13.858;2023-03-03T16:42:30;22.25;;;9.48;;
36189;SDS011;22232;50.914;13.858;2023-03-03T16:45:03;21.83;;;8.90;;
36189;SDS011;22232;50.914;13.858;2023-03-03T16:51:24;21.67;;;9.20;;
36189;SDS011;22232;50.914;13.858;2023-03-03T16:56:21;21.83;;;8.85;;
36189;SDS011;22232;50.914;13.858;2023-03-03T16:59:09;27.48;;;10.18;;
36189;SDS011;22232;50.914;13.858;2023-03-03T17:10:07;32.35;;;12.02;;
36189;SDS011;22232;50.914;13.858;2023-03-03T17:15:41;31.88;;;12.25;;
36189;SDS011;22232;50.914;13.858;2023-03-03T17:29:25;45.97;;;17.48;;
36189;SDS011;22232;50.914;13.858;2023-03-03T17:41:02;53.60;;;19.88;;
36189;SDS011;22232;50.914;13.858;2023-03-03T17:49:41;52.20;;;19.38;;
36189;SDS011;22232;50.914;13.858;2023-03-03T17:52:13;49.45;;;20.80;;
36189;SDS011;22232;50.914;13.858;2023-03-03T18:11:58;61.30;;;22.50;;
36189;SDS011;22232;50.914;13.858;2023-03-03T18:17:14;72.38;;;25.13;;
36189;SDS011;22232;50.914;13.858;2023-03-03T18:22:55;67.63;;;24.10;;
36189;SDS011;22232;50.914;13.858;2023-03-03T18:25:50;75.88;;;25.02;;
36189;SDS011;22232;50.914;13.858;2023-03-03T18:31:20;88.50;;;28.08;;
36189;SDS011;22232;50.914;13.858;2023-03-03T18:36:38;84.03;;;26.95;;
36189;SDS011;22232;50.914;13.858;2023-03-03T18:39:36;86.20;;;27.50;;
36189;SDS011;22232;50.914;13.858;2023-03-03T18:44:42;79.35;;;24.83;;
36189;SDS011;22232;50.914;13.858;2023-03-03T18:47:10;83.35;;;26.00;;
36189;SDS011;22232;50.914;13.858;2023-03-03T18:49:48;80.20;;;25.50;;
36189;SDS011;22232;50.914;13.858;2023-03-03T18:52:23;78.65;;;26.85;;
36189;SDS011;22232;50.914;13.858;2023-03-03T18:55:04;81.43;;;29.08;;
36189;SDS011;22232;50.914;13.858;2023-03-03T19:00:49;90.97;;;27.60;;
36189;SDS011;22232;50.914;13.858;2023-03-03T19:05:59;76.57;;;24.10;;
36189;SDS011;22232;50.914;13.858;2023-03-03T19:08:42;74.78;;;23.90;;
36189;SDS011;22232;50.914;13.858;2023-03-03T19:14:19;66.03;;;23.48;;
36189;SDS011;22232;50.914;13.858;2023-03-03T19:16:58;73.45;;;23.90;;
36189;SDS011;22232;50.914;13.858;2023-03-03T19:20:01;61.58;;;21.42;;
36189;SDS011;22232;50.914;13.858;2023-03-03T19:22:42;71.45;;;22.60;;
36189;SDS011;22232;50.914;13.858;2023-03-03T19:33:40;67.82;;;21.35;;
36189;SDS011;22232;50.914;13.858;2023-03-03T19:42:05;69.93;;;21.30;;
36189;SDS011;22232;50.914;13.858;2023-03-03T19:47:40;69.55;;;23.13;;
36189;SDS011;22232;50.914;13.858;2023-03-03T19:50:20;64.90;;;21.65;;
36189;SDS011;22232;50.914;13.858;2023-03-03T20:04:38;67.20;;;21.13;;
36189;SDS011;22232;50.914;13.858;2023-03-03T20:15:15;69.78;;;20.17;;
36189;SDS011;22232;50.914;13.858;2023-03-03T20:23:41;73.60;;;21.58;;
36189;SDS011;22232;50.914;13.858;2023-03-03T20:26:13;65.82;;;22.20;;
36189;SDS011;22232;50.914;13.858;2023-03-03T20:51:53;70.63;;;20.20;;
36189;SDS011;22232;50.914;13.858;2023-03-03T20:54:32;60.60;;;19.60;;
36189;SDS011;22232;50.914;13.858;2023-03-03T20:57:26;59.05;;;20.33;;
36189;SDS011;22232;50.914;13.858;2023-03-03T21:02:56;70.35;;;22.48;;
36189;SDS011;22232;50.914;13.858;2023-03-03T21:05:32;68.00;;;20.77;;
36189;SDS011;22232;50.914;13.858;2023-03-03T21:08:00;63.10;;;20.15;;
36189;SDS011;22232;50.914;13.858;2023-03-03T21:10:31;65.90;;;20.52;;
36189;SDS011;22232;50.914;13.858;2023-03-03T21:15:58;68.22;;;21.17;;
36189;SDS011;22232;50.914;13.858;2023-03-03T21:20:57;58.40;;;19.27;;
36189;SDS011;22232;50.914;13.858;2023-03-03T21:23:25;63.22;;;20.55;;
36189;SDS011;22232;50.914;13.858;2023-03-03T21:25:53;70.53;;;21.17;;
36189;SDS011;22232;50.914;13.858;2023-03-03T21:28:24;71.05;;;21.42;;
36189;SDS011;22232;50.914;13.858;2023-03-03T21:33:54;73.63;;;21.73;;
36189;SDS011;22232;50.914;13.858;2023-03-03T21:36:43;68.53;;;21.30;;
36189;SDS011;22232;50.914;13.858;2023-03-03T21:44:48;72.43;;;23.20;;
36189;SDS011;22232;50.914;13.858;2023-03-03T21:47:17;75.82;;;22.23;;